sensor_id;sensor_type;location;lat;lon;timestamp;P1;durP1;ratioP1;P2;durP2;ratioP2
81336;SDS011;70799;48.000;10.584;2024-03-23T00:53:07;3.70;;;1.70;;
81336;SDS011;70799;48.000;10.584;2024-03-23T00:55:40;2.05;;;1.40;;
81336;SDS011;70799;48.000;10.584;2024-03-23T00:58:13;4.45;;;1.67;;
81336;SDS011;70799;48.000;10.584;2024-03-23T01:04:42;2.72;;;1.23;;
81336;SDS011;70799;48.000;10.584;2024-03-23T01:07:14;3.33;;;1.50;;
81336;SDS011;70799;48.000;10.584;2024-03-23T01:09:47;2.92;;;1.20;;
81336;SDS011;70799;48.000;10.584;2024-03-23T01:12:19;2.63;;;1.50;;
81336;SDS011;70799;48.000;10.584;2024-03-23T01:14:51;3.33;;;1.42;;
81336;SDS011;70799;48.000;10.584;2024-03-23T01:17:23;3.20;;;1.30;;
81336;SDS011;70799;48.000;10.584;2024-03-23T01:19:55;3.47;;;1.40;;
81336;SDS011;70799;48.000;10.584;2024-03-23T01:22:28;2.92;;;1.33;;
81336;SDS011;70799;48.000;10.584;2024-03-23T01:25:00;6.07;;;1.58;;
81336;SDS011;70799;48.000;10.584;2024-03-23T01:27:34;2.63;;;1.48;;
81336;SDS011;70799;48.000;10.584;2024-03-23T01:30:07;3.08;;;1.73;;
81336;SDS011;70799;48.000;10.584;2024-03-23T01:32:39;5.13;;;1.30;;
81336;SDS011;70799;48.000;10.584;2024-03-23T01:35:12;2.88;;;1.25;;
81336;SDS011;70799;48.000;10.584;2024-03-23T01:37:44;3.20;;;1.30;;
81336;SDS011;70799;48.000;10.584;2024-03-23T01:40:16;3.83;;;1.40;;
81336;SDS011;70799;48.000;10.584;2024-03-23T01:42:55;3.20;;;1.50;;
81336;SDS011;70799;48.000;10.584;2024-03-23T01:45:28;2.55;;;1.33;;
81336;SDS011;70799;48.000;10.584;2024-03-23T01:48:03;2.78;;;1.38;;
81336;SDS011;70799;48.000;10.584;2024-03-23T01:50:35;3.60;;;1.45;;
81336;SDS011;70799;48.000;10.584;2024-03-23T01:53:08;5.13;;;1.70;;
81336;SDS011;70799;48.000;10.584;2024-03-23T01:55:40;3.78;;;1.52;;
81336;SDS011;70799;48.000;10.584;2024-03-23T01:58:12;4.65;;;1.73;;
81336;SDS011;70799;48.000;10.584;2024-03-23T02:00:45;3.30;;;1.48;;
81336;SDS011;70799;48.000;10.584;2024-03-23T02:03:24;5.03;;;1.70;;
81336;SDS011;70799;48.000;10.584;2024-03-23T02:05:57;3.35;;;1.92;;
81336;SDS011;70799;48.000;10.584;2024-03-23T02:08:29;3.78;;;1.52;;
81336;SDS011;70799;48.000;10.584;2024-03-23T02:11:02;3.10;;;1.58;;
81336;SDS011;70799;48.000;10.584;2024-03-23T02:13:34;4.15;;;1.50;;
81336;SDS011;70799;48.000;10.584;2024-03-23T02:16:06;4.18;;;1.65;;
81336;SDS011;70799;48.000;10.584;2024-03-23T02:18:38;3.15;;;1.73;;
81336;SDS011;70799;48.000;10.584;2024-03-23T02:21:11;4.30;;;1.60;;
81336;SDS011;70799;48.000;10.584;2024-03-23T02:23:43;4.45;;;1.73;;
81336;SDS011;70799;48.000;10.584;2024-03-23T02:26:15;15.00;;;3.58;;
81336;SDS011;70799;48.000;10.584;2024-03-23T02:28:47;3.03;;;1.95;;
81336;SDS011;70799;48.000;10.584;2024-03-23T02:31:20;3.28;;;1.80;;
81336;SDS011;70799;48.000;10.584;2024-03-23T02:33:52;3.08;;;1.73;;
81336;SDS011;70799;48.000;10.584;2024-03-23T02:36:24;2.53;;;1.63;;
81336;SDS011;70799;48.000;10.584;2024-03-23T02:38:57;4.32;;;1.90;;
81336;SDS011;70799;48.000;10.584;2024-03-23T02:41:29;2.20;;;1.30;;
81336;SDS011;70799;48.000;10.584;2024-03-23T02:44:01;4.50;;;1.48;;
81336;SDS011;70799;48.000;10.584;2024-03-23T02:46:34;2.97;;;1.73;;
81336;SDS011;70799;48.000;10.584;2024-03-23T02:49:06;3.10;;;1.50;;
81336;SDS011;70799;48.000;10.584;2024-03-23T02:51:38;4.70;;;1.92;;
81336;SDS011;70799;48.000;10.584;2024-03-23T02:54:11;4.22;;;1.45;;
81336;SDS011;70799;48.000;10.584;2024-03-23T02:56:43;3.55;;;1.65;;
81336;SDS011;70799;48.000;10.584;2024-03-23T02:59:16;4.88;;;1.73;;
81336;SDS011;70799;48.000;10.584;2024-03-23T03:01:48;3.75;;;1.70;;
81336;SDS011;70799;48.000;10.584;2024-03-23T03:04:20;2.15;;;1.40;;
81336;SDS011;70799;48.000;10.584;2024-03-23T03:06:52;2.35;;;1.42;;
81336;SDS011;70799;48.000;10.584;2024-03-23T03:09:25;2.33;;;1.33;;
81336;SDS011;70799;48.000;10.584;2024-03-23T03:11:57;4.32;;;1.73;;
81336;SDS011;70799;48.000;10.584;2024-03-23T03:14:29;3.13;;;1.38;;
81336;SDS011;70799;48.000;10.584;2024-03-23T03:17:03;3.78;;;1.67;;
81336;SDS011;70799;48.000;10.584;2024-03-23T03:19:35;3.75;;;1.17;;
81336;SDS011;70799;48.000;10.584;2024-03-23T03:22:08;2.90;;;1.38;;
81336;SDS011;70799;48.000;10.584;2024-03-23T03:24:40;3.28;;;1.30;;
81336;SDS011;70799;48.000;10.584;2024-03-23T03:27:13;2.78;;;1.35;;
81336;SDS011;70799;48.000;10.584;2024-03-23T03:29:45;6.47;;;2.22;;
81336;SDS011;70799;48.000;10.584;2024-03-23T03:32:17;3.88;;;1.75;;
81336;SDS011;70799;48.000;10.584;2024-03-23T03:34:49;2.90;;;1.60;;
81336;SDS011;70799;48.000;10.584;2024-03-23T03:37:22;3.70;;;1.65;;
81336;SDS011;70799;48.000;10.584;2024-03-23T03:39:54;2.88;;;1.20;;
81336;SDS011;70799;48.000;10.584;2024-03-23T03:42:26;3.10;;;1.55;;
81336;SDS011;70799;48.000;10.584;2024-03-23T03:44:58;2.75;;;1.42;;
81336;SDS011;70799;48.000;10.584;2024-03-23T03:47:32;2.63;;;1.40;;
81336;SDS011;70799;48.000;10.584;2024-03-23T03:50:05;3.83;;;1.45;;
81336;SDS011;70799;48.000;10.584;2024-03-23T03:52:37;2.50;;;1.30;;
81336;SDS011;70799;48.000;10.584;2024-03-23T03:55:13;3.33;;;1.30;;
81336;SDS011;70799;48.000;10.584;2024-03-23T03:57:46;3.70;;;1.35;;
81336;SDS011;70799;48.000;10.584;2024-03-23T04:00:18;2.80;;;1.38;;
81336;SDS011;70799;48.000;10.584;2024-03-23T04:02:50;3.35;;;1.30;;
81336;SDS011;70799;48.000;10.584;2024-03-23T04:05:23;2.90;;;1.10;;
81336;SDS011;70799;48.000;10.584;2024-03-23T04:07:55;2.38;;;1.38;;
81336;SDS011;70799;48.000;10.584;2024-03-23T04:10:27;2.47;;;1.38;;
81336;SDS011;70799;48.000;10.584;2024-03-23T04:12:59;3.83;;;1.67;;
81336;SDS011;70799;48.000;10.584;2024-03-23T04:15:34;2.90;;;1.20;;
81336;SDS011;70799;48.000;10.584;2024-03-23T04:18:06;2.28;;;1.10;;
81336;SDS011;70799;48.000;10.584;2024-03-23T04:20:39;2.45;;;1.23;;
81336;SDS011;70799;48.000;10.584;2024-03-23T04:23:11;1.85;;;0.80;;
81336;SDS011;70799;48.000;10.584;2024-03-23T04:25:43;3.40;;;1.30;;
81336;SDS011;70799;48.000;10.584;2024-03-23T04:28:16;3.55;;;1.30;;
81336;SDS011;70799;48.000;10.584;2024-03-23T04:30:48;2.38;;;1.10;;
81336;SDS011;70799;48.000;10.584;2024-03-23T04:33:20;4.40;;;1.40;;
81336;SDS011;70799;48.000;10.584;2024-03-23T04:35:52;3.13;;;1.58;;
81336;SDS011;70799;48.000;10.584;2024-03-23T04:38:25;1.95;;;1.13;;
81336;SDS011;70799;48.000;10.584;2024-03-23T04:40:58;4.35;;;1.23;;
81336;SDS011;70799;48.000;10.584;2024-03-23T04:43:32;4.45;;;1.10;;
81336;SDS011;70799;48.000;10.584;2024-03-23T04:46:05;2.35;;;1.05;;
81336;SDS011;70799;48.000;10.584;2024-03-23T04:48:37;2.53;;;1.25;;
81336;SDS011;70799;48.000;10.584;2024-03-23T04:51:10;3.03;;;1.20;;
81336;SDS011;70799;48.000;10.584;2024-03-23T04:53:42;2.42;;;1.38;;
81336;SDS011;70799;48.000;10.584;2024-03-23T04:56:15;2.95;;;1.02;;
81336;SDS011;70799;48.000;10.584;2024-03-23T04:58:48;2.22;;;1.02;;
81336;SDS011;70799;48.000;10.584;2024-03-23T05:01:20;3.50;;;1.10;;
81336;SDS011;70799;48.000;10.584;2024-03-23T05:03:55;1.75;;;0.95;;
81336;SDS011;70799;48.000;10.584;2024-03-23T05:06:28;2.35;;;1.10;;
81336;SDS011;70799;48.000;10.584;2024-03-23T05:09:00;3.05;;;0.80;;
81336;SDS011;70799;48.000;10.584;2024-03-23T05:11:34;1.50;;;0.88;;
81336;SDS011;70799;48.000;10.584;2024-03-23T05:14:06;1.63;;;0.70;;
81336;SDS011;70799;48.000;10.584;2024-03-23T05:16:38;2.10;;;1.15;;
81336;SDS011;70799;48.000;10.584;2024-03-23T05:19:11;3.13;;;0.88;;
81336;SDS011;70799;48.000;10.584;2024-03-23T05:21:43;2.08;;;0.90;;
81336;SDS011;70799;48.000;10.584;2024-03-23T05:24:15;1.90;;;1.00;;
81336;SDS011;70799;48.000;10.584;2024-03-23T05:26:47;3.08;;;1.27;;
81336;SDS011;70799;48.000;10.584;2024-03-23T05:29:20;3.22;;;1.00;;
81336;SDS011;70799;48.000;10.584;2024-03-23T05:31:52;1.88;;;0.88;;
81336;SDS011;70799;48.000;10.584;2024-03-23T05:34:25;2.78;;;1.27;;
81336;SDS011;70799;48.000;10.584;2024-03-23T05:36:58;2.90;;;1.40;;
81336;SDS011;70799;48.000;10.584;2024-03-23T05:39:33;1.60;;;0.80;;
81336;SDS011;70799;48.000;10.584;2024-03-23T05:42:06;2.63;;;1.25;;
81336;SDS011;70799;48.000;10.584;2024-03-23T05:44:38;2.60;;;1.20;;
81336;SDS011;70799;48.000;10.584;2024-03-23T05:47:10;2.00;;;0.90;;
81336;SDS011;70799;48.000;10.584;2024-03-23T05:49:45;3.08;;;1.15;;
81336;SDS011;70799;48.000;10.584;2024-03-23T05:52:18;2.00;;;0.90;;
81336;SDS011;70799;48.000;10.584;2024-03-23T05:54:51;4.95;;;1.40;;
81336;SDS011;70799;48.000;10.584;2024-03-23T05:57:23;3.90;;;1.10;;
81336;SDS011;70799;48.000;10.584;2024-03-23T05:59:56;3.17;;;0.90;;
81336;SDS011;70799;48.000;10.584;2024-03-23T06:02:28;2.83;;;1.10;;
81336;SDS011;70799;48.000;10.584;2024-03-23T06:05:00;1.35;;;0.80;;
81336;SDS011;70799;48.000;10.584;2024-03-23T06:07:33;3.80;;;1.17;;
81336;SDS011;70799;48.000;10.584;2024-03-23T06:10:06;1.65;;;0.90;;
81336;SDS011;70799;48.000;10.584;2024-03-23T06:12:39;4.50;;;1.40;;
81336;SDS011;70799;48.000;10.584;2024-03-23T06:15:11;8.68;;;1.60;;
81336;SDS011;70799;48.000;10.584;2024-03-23T06:17:43;5.22;;;1.17;;
81336;SDS011;70799;48.000;10.584;2024-03-23T06:20:15;2.00;;;0.88;;
81336;SDS011;70799;48.000;10.584;2024-03-23T06:22:48;4.57;;;1.52;;
81336;SDS011;70799;48.000;10.584;2024-03-23T06:25:20;2.97;;;1.20;;
81336;SDS011;70799;48.000;10.584;2024-03-23T06:27:52;2.92;;;1.40;;
81336;SDS011;70799;48.000;10.584;2024-03-23T06:30:25;2.97;;;1.52;;
81336;SDS011;70799;48.000;10.584;2024-03-23T06:32:57;3.35;;;1.40;;
81336;SDS011;70799;48.000;10.584;2024-03-23T06:35:29;2.50;;;1.35;;
81336;SDS011;70799;48.000;10.584;2024-03-23T06:38:02;2.53;;;0.93;;
81336;SDS011;70799;48.000;10.584;2024-03-23T06:40:35;3.65;;;1.27;;
81336;SDS011;70799;48.000;10.584;2024-03-23T06:43:08;1.77;;;0.90;;
81336;SDS011;70799;48.000;10.584;2024-03-23T06:45:40;2.58;;;1.00;;
81336;SDS011;70799;48.000;10.584;2024-03-23T06:48:12;3.50;;;1.25;;
81336;SDS011;70799;48.000;10.584;2024-03-23T06:50:45;5.03;;;1.25;;
81336;SDS011;70799;48.000;10.584;2024-03-23T06:53:18;3.60;;;1.20;;
81336;SDS011;70799;48.000;10.584;2024-03-23T06:55:53;4.05;;;1.48;;
81336;SDS011;70799;48.000;10.584;2024-03-23T06:58:25;2.78;;;1.30;;
81336;SDS011;70799;48.000;10.584;2024-03-23T07:00:58;2.53;;;1.50;;
81336;SDS011;70799;48.000;10.584;2024-03-23T07:03:30;4.05;;;1.58;;
81336;SDS011;70799;48.000;10.584;2024-03-23T07:06:02;4.22;;;1.80;;
81336;SDS011;70799;48.000;10.584;2024-03-23T07:08:35;2.80;;;1.70;;
81336;SDS011;70799;48.000;10.584;2024-03-23T07:11:07;3.78;;;1.92;;
81336;SDS011;70799;48.000;10.584;2024-03-23T07:13:39;2.70;;;1.70;;
81336;SDS011;70799;48.000;10.584;2024-03-23T07:16:13;3.88;;;2.00;;
81336;SDS011;70799;48.000;10.584;2024-03-23T07:18:45;3.13;;;1.70;;
81336;SDS011;70799;48.000;10.584;2024-03-23T07:21:18;4.07;;;1.92;;
81336;SDS011;70799;48.000;10.584;2024-03-23T07:23:50;5.90;;;1.77;;
81336;SDS011;70799;48.000;10.584;2024-03-23T07:26:22;3.38;;;1.50;;
81336;SDS011;70799;48.000;10.584;2024-03-23T07:28:55;4.35;;;1.90;;
81336;SDS011;70799;48.000;10.584;2024-03-23T07:31:28;2.70;;;1.48;;
81336;SDS011;70799;48.000;10.584;2024-03-23T07:34:00;3.25;;;1.80;;
81336;SDS011;70799;48.000;10.584;2024-03-23T07:36:34;2.92;;;1.92;;
81336;SDS011;70799;48.000;10.584;2024-03-23T07:39:07;6.35;;;1.52;;
81336;SDS011;70799;48.000;10.584;2024-03-23T07:41:39;2.60;;;1.73;;
81336;SDS011;70799;48.000;10.584;2024-03-23T07:44:11;5.57;;;2.10;;
81336;SDS011;70799;48.000;10.584;2024-03-23T07:46:44;3.25;;;1.95;;
81336;SDS011;70799;48.000;10.584;2024-03-23T07:49:16;4.10;;;2.25;;
81336;SDS011;70799;48.000;10.584;2024-03-23T07:51:49;5.50;;;2.40;;
81336;SDS011;70799;48.000;10.584;2024-03-23T07:54:21;4.70;;;2.50;;
81336;SDS011;70799;48.000;10.584;2024-03-23T07:56:53;3.95;;;2.40;;
81336;SDS011;70799;48.000;10.584;2024-03-23T07:59:26;3.70;;;2.38;;
81336;SDS011;70799;48.000;10.584;2024-03-23T08:01:58;3.13;;;1.67;;
81336;SDS011;70799;48.000;10.584;2024-03-23T08:04:30;4.40;;;2.58;;
81336;SDS011;70799;48.000;10.584;2024-03-23T08:07:03;4.45;;;2.42;;
81336;SDS011;70799;48.000;10.584;2024-03-23T08:09:35;5.88;;;3.22;;
81336;SDS011;70799;48.000;10.584;2024-03-23T08:12:08;7.65;;;2.50;;
81336;SDS011;70799;48.000;10.584;2024-03-23T08:14:40;4.53;;;1.73;;
81336;SDS011;70799;48.000;10.584;2024-03-23T08:17:12;4.03;;;1.83;;
81336;SDS011;70799;48.000;10.584;2024-03-23T08:19:45;8.07;;;2.00;;
81336;SDS011;70799;48.000;10.584;2024-03-23T08:22:17;10.02;;;2.13;;
81336;SDS011;70799;48.000;10.584;2024-03-23T08:24:50;5.10;;;2.25;;
81336;SDS011;70799;48.000;10.584;2024-03-23T08:27:22;6.03;;;2.00;;
81336;SDS011;70799;48.000;10.584;2024-03-23T08:29:54;7.45;;;2.33;;
81336;SDS011;70799;48.000;10.584;2024-03-23T08:32:28;4.70;;;1.95;;
81336;SDS011;70799;48.000;10.584;2024-03-23T08:35:00;7.97;;;2.63;;
81336;SDS011;70799;48.000;10.584;2024-03-23T08:37:33;5.20;;;1.95;;
81336;SDS011;70799;48.000;10.584;2024-03-23T08:40:06;6.15;;;2.50;;
81336;SDS011;70799;48.000;10.584;2024-03-23T08:42:41;6.80;;;2.58;;
81336;SDS011;70799;48.000;10.584;2024-03-23T08:45:17;6.85;;;3.00;;
81336;SDS011;70799;48.000;10.584;2024-03-23T08:47:52;5.03;;;2.50;;
81336;SDS011;70799;48.000;10.584;2024-03-23T08:50:25;5.53;;;2.88;;
81336;SDS011;70799;48.000;10.584;2024-03-23T08:52:58;5.05;;;2.45;;
81336;SDS011;70799;48.000;10.584;2024-03-23T08:55:30;5.43;;;2.75;;
81336;SDS011;70799;48.000;10.584;2024-03-23T08:58:02;6.10;;;2.95;;
81336;SDS011;70799;48.000;10.584;2024-03-23T09:00:35;7.50;;;3.63;;
81336;SDS011;70799;48.000;10.584;2024-03-23T09:03:07;4.32;;;1.90;;
81336;SDS011;70799;48.000;10.584;2024-03-23T09:05:39;3.97;;;1.10;;
81336;SDS011;70799;48.000;10.584;2024-03-23T09:08:12;2.13;;;0.90;;
81336;SDS011;70799;48.000;10.584;2024-03-23T09:10:44;2.67;;;1.02;;
81336;SDS011;70799;48.000;10.584;2024-03-23T09:13:16;1.95;;;0.90;;
81336;SDS011;70799;48.000;10.584;2024-03-23T09:15:50;1.58;;;0.60;;
81336;SDS011;70799;48.000;10.584;2024-03-23T09:18:22;2.47;;;0.82;;
81336;SDS011;70799;48.000;10.584;2024-03-23T09:20:55;2.60;;;0.65;;
81336;SDS011;70799;48.000;10.584;2024-03-23T09:23:27;3.25;;;1.48;;
81336;SDS011;70799;48.000;10.584;2024-03-23T09:26:02;2.17;;;0.80;;
81336;SDS011;70799;48.000;10.584;2024-03-23T09:28:35;2.80;;;0.88;;
81336;SDS011;70799;48.000;10.584;2024-03-23T09:31:08;2.88;;;0.90;;
81336;SDS011;70799;48.000;10.584;2024-03-23T09:33:41;2.60;;;0.73;;
81336;SDS011;70799;48.000;10.584;2024-03-23T09:36:13;5.15;;;0.88;;
81336;SDS011;70799;48.000;10.584;2024-03-23T09:38:46;3.05;;;1.17;;
81336;SDS011;70799;48.000;10.584;2024-03-23T09:41:18;3.80;;;1.52;;
81336;SDS011;70799;48.000;10.584;2024-03-23T09:43:54;3.65;;;1.30;;
81336;SDS011;70799;48.000;10.584;2024-03-23T09:46:26;3.10;;;1.50;;
81336;SDS011;70799;48.000;10.584;2024-03-23T09:48:58;3.92;;;1.80;;
81336;SDS011;70799;48.000;10.584;2024-03-23T09:51:33;4.30;;;1.35;;
81336;SDS011;70799;48.000;10.584;2024-03-23T09:54:09;4.85;;;1.75;;
81336;SDS011;70799;48.000;10.584;2024-03-23T09:56:42;4.82;;;1.40;;
81336;SDS011;70799;48.000;10.584;2024-03-23T09:59:14;1.75;;;0.50;;
81336;SDS011;70799;48.000;10.584;2024-03-23T10:01:46;1.67;;;0.57;;
81336;SDS011;70799;48.000;10.584;2024-03-23T10:04:38;0.98;;;0.40;;
81336;SDS011;70799;48.000;10.584;2024-03-23T10:09:48;0.75;;;0.40;;
81336;SDS011;70799;48.000;10.584;2024-03-23T10:12:23;3.03;;;0.40;;
81336;SDS011;70799;48.000;10.584;2024-03-23T10:14:56;1.70;;;0.50;;
81336;SDS011;70799;48.000;10.584;2024-03-23T10:17:29;1.90;;;0.40;;
81336;SDS011;70799;48.000;10.584;2024-03-23T10:20:04;0.95;;;0.35;;
81336;SDS011;70799;48.000;10.584;2024-03-23T10:22:42;1.15;;;0.57;;
81336;SDS011;70799;48.000;10.584;2024-03-23T10:25:24;2.58;;;0.47;;
81336;SDS011;70799;48.000;10.584;2024-03-23T10:28:09;1.77;;;0.70;;
81336;SDS011;70799;48.000;10.584;2024-03-23T10:30:45;2.10;;;0.73;;
81336;SDS011;70799;48.000;10.584;2024-03-23T10:33:17;1.73;;;0.77;;
81336;SDS011;70799;48.000;10.584;2024-03-23T10:35:49;2.42;;;0.80;;
81336;SDS011;70799;48.000;10.584;2024-03-23T10:38:22;2.50;;;0.90;;
81336;SDS011;70799;48.000;10.584;2024-03-23T10:40:54;3.17;;;0.80;;
81336;SDS011;70799;48.000;10.584;2024-03-23T10:43:28;3.40;;;0.85;;
81336;SDS011;70799;48.000;10.584;2024-03-23T10:46:01;2.28;;;0.90;;
81336;SDS011;70799;48.000;10.584;2024-03-23T10:48:33;2.97;;;0.90;;
81336;SDS011;70799;48.000;10.584;2024-03-23T10:51:07;2.58;;;1.10;;
81336;SDS011;70799;48.000;10.584;2024-03-23T10:53:39;2.65;;;1.15;;
81336;SDS011;70799;48.000;10.584;2024-03-23T10:56:12;1.73;;;1.05;;
81336;SDS011;70799;48.000;10.584;2024-03-23T10:58:46;4.15;;;1.10;;
81336;SDS011;70799;48.000;10.584;2024-03-23T11:01:20;2.63;;;1.17;;
81336;SDS011;70799;48.000;10.584;2024-03-23T11:03:52;2.05;;;0.80;;
81336;SDS011;70799;48.000;10.584;2024-03-23T11:06:34;2.33;;;0.93;;
81336;SDS011;70799;48.000;10.584;2024-03-23T11:14:58;2.00;;;0.70;;
81336;SDS011;70799;48.000;10.584;2024-03-23T11:17:35;3.10;;;0.90;;
81336;SDS011;70799;48.000;10.584;2024-03-23T11:20:14;3.42;;;1.10;;
81336;SDS011;70799;48.000;10.584;2024-03-23T11:22:48;1.98;;;0.63;;
81336;SDS011;70799;48.000;10.584;2024-03-23T11:25:21;2.10;;;1.13;;
81336;SDS011;70799;48.000;10.584;2024-03-23T11:27:55;3.00;;;0.60;;
81336;SDS011;70799;48.000;10.584;2024-03-23T11:30:28;5.00;;;1.27;;
81336;SDS011;70799;48.000;10.584;2024-03-23T11:33:00;3.50;;;0.95;;
81336;SDS011;70799;48.000;10.584;2024-03-23T11:35:37;3.22;;;1.10;;
81336;SDS011;70799;48.000;10.584;2024-03-23T11:38:11;3.85;;;1.45;;
81336;SDS011;70799;48.000;10.584;2024-03-23T11:40:50;4.68;;;1.10;;
81336;SDS011;70799;48.000;10.584;2024-03-23T11:43:22;3.17;;;0.95;;
81336;SDS011;70799;48.000;10.584;2024-03-23T11:45:55;3.53;;;1.40;;
81336;SDS011;70799;48.000;10.584;2024-03-23T11:48:27;4.22;;;1.30;;
81336;SDS011;70799;48.000;10.584;2024-03-23T11:51:00;4.03;;;1.13;;
81336;SDS011;70799;48.000;10.584;2024-03-23T11:53:33;4.35;;;1.20;;
81336;SDS011;70799;48.000;10.584;2024-03-23T11:56:06;2.55;;;1.35;;
81336;SDS011;70799;48.000;10.584;2024-03-23T11:58:38;2.28;;;1.00;;
81336;SDS011;70799;48.000;10.584;2024-03-23T12:01:11;4.88;;;1.65;;
81336;SDS011;70799;48.000;10.584;2024-03-23T12:03:44;2.63;;;1.25;;
81336;SDS011;70799;48.000;10.584;2024-03-23T12:06:19;5.18;;;1.33;;
81336;SDS011;70799;48.000;10.584;2024-03-23T12:08:51;3.20;;;1.08;;
81336;SDS011;70799;48.000;10.584;2024-03-23T12:11:24;2.80;;;1.13;;
81336;SDS011;70799;48.000;10.584;2024-03-23T12:13:56;4.30;;;1.20;;
81336;SDS011;70799;48.000;10.584;2024-03-23T12:16:33;3.05;;;1.30;;
81336;SDS011;70799;48.000;10.584;2024-03-23T12:19:05;4.30;;;1.45;;
81336;SDS011;70799;48.000;10.584;2024-03-23T12:21:37;4.35;;;1.20;;
81336;SDS011;70799;48.000;10.584;2024-03-23T12:24:10;6.63;;;1.42;;
81336;SDS011;70799;48.000;10.584;2024-03-23T12:26:42;2.55;;;0.90;;
81336;SDS011;70799;48.000;10.584;2024-03-23T12:29:15;2.78;;;1.08;;
81336;SDS011;70799;48.000;10.584;2024-03-23T12:31:47;4.47;;;1.38;;
81336;SDS011;70799;48.000;10.584;2024-03-23T12:34:20;4.53;;;1.23;;
81336;SDS011;70799;48.000;10.584;2024-03-23T12:36:52;4.43;;;1.40;;
81336;SDS011;70799;48.000;10.584;2024-03-23T12:39:25;3.53;;;1.20;;
81336;SDS011;70799;48.000;10.584;2024-03-23T12:41:57;4.05;;;0.95;;
81336;SDS011;70799;48.000;10.584;2024-03-23T12:44:30;3.53;;;0.80;;
81336;SDS011;70799;48.000;10.584;2024-03-23T12:47:02;5.05;;;1.48;;
81336;SDS011;70799;48.000;10.584;2024-03-23T12:49:35;5.15;;;1.23;;
81336;SDS011;70799;48.000;10.584;2024-03-23T12:52:08;5.05;;;1.23;;
81336;SDS011;70799;48.000;10.584;2024-03-23T12:54:40;5.57;;;1.50;;
81336;SDS011;70799;48.000;10.584;2024-03-23T12:57:13;2.70;;;1.30;;
81336;SDS011;70799;48.000;10.584;2024-03-23T12:59:45;2.22;;;0.93;;
81336;SDS011;70799;48.000;10.584;2024-03-23T13:02:18;4.55;;;1.30;;
81336;SDS011;70799;48.000;10.584;2024-03-23T13:04:54;3.83;;;1.42;;
81336;SDS011;70799;48.000;10.584;2024-03-23T13:07:26;3.75;;;1.13;;
81336;SDS011;70799;48.000;10.584;2024-03-23T13:09:59;3.85;;;1.00;;
81336;SDS011;70799;48.000;10.584;2024-03-23T13:12:34;4.30;;;1.05;;
81336;SDS011;70799;48.000;10.584;2024-03-23T13:15:06;4.65;;;1.17;;
81336;SDS011;70799;48.000;10.584;2024-03-23T13:17:39;3.15;;;1.08;;
81336;SDS011;70799;48.000;10.584;2024-03-23T13:20:12;4.65;;;1.10;;
81336;SDS011;70799;48.000;10.584;2024-03-23T13:22:44;3.65;;;1.42;;
81336;SDS011;70799;48.000;10.584;2024-03-23T13:25:17;2.22;;;1.15;;
81336;SDS011;70799;48.000;10.584;2024-03-23T13:27:50;3.97;;;1.00;;
81336;SDS011;70799;48.000;10.584;2024-03-23T13:30:22;5.00;;;1.17;;
81336;SDS011;70799;48.000;10.584;2024-03-23T13:32:54;4.05;;;1.10;;
81336;SDS011;70799;48.000;10.584;2024-03-23T13:35:31;3.85;;;1.00;;
81336;SDS011;70799;48.000;10.584;2024-03-23T13:40:49;3.83;;;1.15;;
81336;SDS011;70799;48.000;10.584;2024-03-23T13:43:25;4.85;;;1.25;;
81336;SDS011;70799;48.000;10.584;2024-03-23T13:45:58;4.32;;;0.90;;
81336;SDS011;70799;48.000;10.584;2024-03-23T13:48:33;4.88;;;1.60;;
81336;SDS011;70799;48.000;10.584;2024-03-23T13:51:07;6.50;;;2.20;;
81336;SDS011;70799;48.000;10.584;2024-03-23T13:53:39;4.55;;;1.50;;
81336;SDS011;70799;48.000;10.584;2024-03-23T13:56:12;5.38;;;1.15;;
81336;SDS011;70799;48.000;10.584;2024-03-23T13:58:46;3.70;;;1.30;;
81336;SDS011;70799;48.000;10.584;2024-03-23T14:01:19;8.45;;;2.47;;
81336;SDS011;70799;48.000;10.584;2024-03-23T14:03:51;4.45;;;1.65;;
81336;SDS011;70799;48.000;10.584;2024-03-23T14:06:23;5.70;;;1.70;;
81336;SDS011;70799;48.000;10.584;2024-03-23T14:08:56;4.75;;;1.23;;
81336;SDS011;70799;48.000;10.584;2024-03-23T14:11:28;4.53;;;1.20;;
81336;SDS011;70799;48.000;10.584;2024-03-23T14:14:01;3.70;;;1.10;;
81336;SDS011;70799;48.000;10.584;2024-03-23T14:16:33;2.13;;;1.00;;
81336;SDS011;70799;48.000;10.584;2024-03-23T14:19:06;4.10;;;1.20;;
81336;SDS011;70799;48.000;10.584;2024-03-23T14:21:38;4.70;;;1.45;;
81336;SDS011;70799;48.000;10.584;2024-03-23T14:24:11;4.18;;;1.10;;
81336;SDS011;70799;48.000;10.584;2024-03-23T14:26:43;2.25;;;0.90;;
81336;SDS011;70799;48.000;10.584;2024-03-23T14:29:15;2.60;;;0.55;;
81336;SDS011;70799;48.000;10.584;2024-03-23T14:31:47;2.25;;;0.77;;
81336;SDS011;70799;48.000;10.584;2024-03-23T14:34:20;0.90;;;0.60;;
81336;SDS011;70799;48.000;10.584;2024-03-23T14:36:52;1.23;;;0.60;;
81336;SDS011;70799;48.000;10.584;2024-03-23T14:39:26;4.70;;;1.17;;
81336;SDS011;70799;48.000;10.584;2024-03-23T14:41:58;2.17;;;0.93;;
81336;SDS011;70799;48.000;10.584;2024-03-23T14:44:32;4.07;;;1.35;;
81336;SDS011;70799;48.000;10.584;2024-03-23T14:47:04;3.60;;;0.80;;
81336;SDS011;70799;48.000;10.584;2024-03-23T14:49:36;2.97;;;0.73;;
81336;SDS011;70799;48.000;10.584;2024-03-23T14:52:09;2.88;;;0.88;;
81336;SDS011;70799;48.000;10.584;2024-03-23T14:54:41;1.83;;;0.60;;
81336;SDS011;70799;48.000;10.584;2024-03-23T14:57:13;2.92;;;0.88;;
81336;SDS011;70799;48.000;10.584;2024-03-23T14:59:46;3.47;;;1.00;;
81336;SDS011;70799;48.000;10.584;2024-03-23T15:02:18;3.13;;;0.73;;
81336;SDS011;70799;48.000;10.584;2024-03-23T15:04:51;4.13;;;1.00;;
81336;SDS011;70799;48.000;10.584;2024-03-23T15:07:23;3.72;;;1.27;;
81336;SDS011;70799;48.000;10.584;2024-03-23T15:09:55;3.35;;;0.90;;
81336;SDS011;70799;48.000;10.584;2024-03-23T15:12:28;4.32;;;1.33;;
81336;SDS011;70799;48.000;10.584;2024-03-23T15:15:01;3.92;;;0.93;;
81336;SDS011;70799;48.000;10.584;2024-03-23T15:17:34;3.58;;;0.80;;
81336;SDS011;70799;48.000;10.584;2024-03-23T15:20:06;4.00;;;0.70;;
81336;SDS011;70799;48.000;10.584;2024-03-23T15:22:39;2.75;;;0.50;;
81336;SDS011;70799;48.000;10.584;2024-03-23T15:25:11;4.10;;;1.13;;
81336;SDS011;70799;48.000;10.584;2024-03-23T15:27:44;0.95;;;0.30;;
81336;SDS011;70799;48.000;10.584;2024-03-23T15:30:16;2.15;;;0.40;;
81336;SDS011;70799;48.000;10.584;2024-03-23T15:32:48;1.92;;;0.60;;
81336;SDS011;70799;48.000;10.584;2024-03-23T15:35:21;1.30;;;0.57;;
81336;SDS011;70799;48.000;10.584;2024-03-23T15:37:53;1.85;;;0.60;;
81336;SDS011;70799;48.000;10.584;2024-03-23T15:40:25;2.95;;;0.70;;
81336;SDS011;70799;48.000;10.584;2024-03-23T15:42:57;3.30;;;0.93;;
81336;SDS011;70799;48.000;10.584;2024-03-23T15:45:30;2.05;;;0.50;;
81336;SDS011;70799;48.000;10.584;2024-03-23T15:48:03;2.80;;;0.63;;
81336;SDS011;70799;48.000;10.584;2024-03-23T15:50:36;1.27;;;0.30;;
81336;SDS011;70799;48.000;10.584;2024-03-23T15:53:08;1.65;;;0.43;;
81336;SDS011;70799;48.000;10.584;2024-03-23T15:55:40;3.13;;;0.95;;
81336;SDS011;70799;48.000;10.584;2024-03-23T15:58:12;3.47;;;0.90;;
81336;SDS011;70799;48.000;10.584;2024-03-23T16:00:45;2.20;;;0.80;;
81336;SDS011;70799;48.000;10.584;2024-03-23T16:03:25;4.25;;;0.70;;
81336;SDS011;70799;48.000;10.584;2024-03-23T16:06:01;3.70;;;0.60;;
81336;SDS011;70799;48.000;10.584;2024-03-23T16:08:35;2.92;;;0.65;;
81336;SDS011;70799;48.000;10.584;2024-03-23T16:11:07;5.40;;;0.85;;
81336;SDS011;70799;48.000;10.584;2024-03-23T16:13:40;3.78;;;1.00;;